Time;durP1;ratioP1;P1;durP2;ratioP2;P2;SDS_P1;SDS_P2;PMS_P1;PMS_P2;Temp;Humidity;BMP_temperature;BMP_pressure;BME280_temperature;BME280_humidity;BME280_pressure;Samples;Min_cycle;Max_cycle;Signal;HPM_P1;HPM_P2
2022/10/06 00:01:56;;;;;;;28.50;11.23;;;;;;;;;;5093461;28;20233;-43
2022/10/06 00:04:21;;;;;;;28.73;11.02;;;;;;;;;;5093998;28;20248;-37
2022/10/06 00:06:47;;;;;;;23.05;10.75;;;;;;;;;;5094051;28;20008;-39
2022/10/06 00:09:12;;;;;;;24.35;10.63;;;;;;;;;;5093567;28;20016;-42
2022/10/06 00:11:37;;;;;;;23.98;10.18;;;;;;;;;;5093634;28;20031;-42
2022/10/06 00:14:02;;;;;;;28.80;10.07;;;;;;;;;;5094151;28;20024;-42
2022/10/06 00:16:28;;;;;;;26.13;10.15;;;;;;;;;;5093154;28;20051;-40
2022/10/06 00:18:53;;;;;;;32.77;11.37;;;;;;;;;;5092659;28;20024;-41
2022/10/06 00:21:18;;;;;;;29.40;10.77;;;;;;;;;;5093583;28;20774;-39
2022/10/06 00:23:44;;;;;;;22.80;10.52;;;;;;;;;;5093445;28;20051;-40
2022/10/06 00:26:10;;;;;;;30.77;10.10;;;;;;;;;;5093622;28;20068;-42
2022/10/06 00:28:35;;;;;;;26.45;11.73;;;;;;;;;;5093435;28;20023;-39
2022/10/06 00:31:01;;;;;;;32.97;11.68;;;;;;;;;;5093316;28;20016;-41
2022/10/06 00:33:26;;;;;;;34.00;12.05;;;;;;;;;;5092791;28;20079;-42
2022/10/06 00:35:56;;;;;;;22.27;10.83;;;;;;;;;;5093380;28;20066;-42
2022/10/06 00:38:22;;;;;;;28.15;11.88;;;;;;;;;;5093142;28;20374;-41
2022/10/06 00:40:48;;;;;;;32.07;11.47;;;;;;;;;;5092715;28;20469;-41
2022/10/06 00:43:32;;;;;;;28.48;10.73;;;;;;;;;;5093124;28;20850;-43
2022/10/06 00:45:57;;;;;;;31.98;11.95;;;;;;;;;;5092920;28;20044;-41
2022/10/06 00:48:24;;;;;;;30.80;12.13;;;;;;;;;;5093092;28;20078;-41
2022/10/06 00:50:51;;;;;;;25.92;10.77;;;;;;;;;;5092846;28;20016;-40
2022/10/06 00:53:16;;;;;;;28.92;12.15;;;;;;;;;;5092813;28;20036;-41
2022/10/06 00:55:42;;;;;;;24.85;10.05;;;;;;;;;;5092774;28;20462;-37
2022/10/06 00:58:08;;;;;;;27.43;10.40;;;;;;;;;;5092667;28;20016;-40
2022/10/06 01:00:33;;;;;;;30.30;10.93;;;;;;;;;;5092691;28;20719;-42
2022/10/06 01:03:06;;;;;;;35.67;11.75;;;;;;;;;;5092418;28;20023;-42
2022/10/06 01:05:40;;;;;;;27.10;11.68;;;;;;;;;;5092449;28;20035;-41
2022/10/06 01:08:05;;;;;;;27.92;11.10;;;;;;;;;;5092353;28;20101;-37
2022/10/06 01:10:30;;;;;;;31.95;11.98;;;;;;;;;;5092540;28;20058;-40
2022/10/06 01:12:56;;;;;;;28.37;12.03;;;;;;;;;;5092232;28;20059;-42
2022/10/06 01:15:22;;;;;;;35.97;13.65;;;;;;;;;;5092178;28;20264;-40
2022/10/06 01:17:51;;;;;;;48.45;41.33;;;;;;;;;;5092484;28;20022;-39
2022/10/06 01:20:16;;;;;;;;;;;;;;;;;;5092575;28;20020;-39
2022/10/06 01:23:14;;;;;;;22.52;10.23;;;;;;;;;;5092215;28;19903;-39
2022/10/06 01:25:39;;;;;;;26.35;11.65;;;;;;;;;;5036739;28;20044;-42
2022/10/06 01:28:05;;;;;;;24.05;10.52;;;;;;;;;;5092538;28;20580;-42
2022/10/06 01:30:31;;;;;;;36.55;17.58;;;;;;;;;;5091896;28;20016;-41
2022/10/06 01:32:56;;;;;;;28.53;12.13;;;;;;;;;;5092086;28;20490;-39
2022/10/06 01:35:22;;;;;;;31.45;12.15;;;;;;;;;;5091651;28;20236;-42
2022/10/06 01:37:47;;;;;;;27.60;10.57;;;;;;;;;;5091857;28;20047;-41
2022/10/06 01:40:12;;;;;;;27.35;11.63;;;;;;;;;;5091579;28;20118;-43
2022/10/06 01:42:38;;;;;;;29.10;13.60;;;;;;;;;;5092043;28;20045;-40
2022/10/06 01:45:03;;;;;;;41.75;21.70;;;;;;;;;;5091912;28;20313;-41
2022/10/06 01:47:29;;;;;;;30.55;11.18;;;;;;;;;;5091874;28;20087;-36
2022/10/06 01:49:54;;;;;;;32.50;11.75;;;;;;;;;;5091645;28;20030;-40
2022/10/06 01:52:20;;;;;;;26.58;11.02;;;;;;;;;;5091690;28;20047;-44
2022/10/06 01:54:45;;;;;;;221.35;193.82;;;;;;;;;;5091445;28;20063;-41
2022/10/06 01:57:10;;;;;;;37.28;21.02;;;;;;;;;;5091618;28;20039;-40
2022/10/06 01:59:35;;;;;;;31.80;12.07;;;;;;;;;;5091822;28;20461;-43
2022/10/06 02:02:01;;;;;;;74.72;67.22;;;;;;;;;;5091946;28;20360;-43
2022/10/06 02:04:26;;;;;;;50.03;31.75;;;;;;;;;;5091772;28;20047;-39
2022/10/06 02:06:54;;;;;;;26.05;11.25;;;;;;;;;;5091882;28;20099;-39
2022/10/06 02:09:19;;;;;;;27.15;10.80;;;;;;;;;;5091347;28;20012;-39
2022/10/06 02:11:44;;;;;;;40.63;23.90;;;;;;;;;;5091324;28;20486;-42
2022/10/06 02:14:12;;;;;;;30.60;11.63;;;;;;;;;;5091363;28;20028;-39
2022/10/06 02:16:37;;;;;;;37.90;24.85;;;;;;;;;;5091236;28;20273;-39
2022/10/06 02:19:02;;;;;;;32.80;11.55;;;;;;;;;;5091752;28;20642;-43
2022/10/06 02:21:27;;;;;;;36.20;14.13;;;;;;;;;;5091285;28;20844;-42
2022/10/06 02:23:53;;;;;;;27.23;11.20;;;;;;;;;;5091709;28;20257;-40
2022/10/06 02:26:18;;;;;;;29.00;11.32;;;;;;;;;;5091326;28;20233;-40
2022/10/06 02:28:45;;;;;;;24.27;11.00;;;;;;;;;;5091347;28;20016;-42
2022/10/06 02:31:10;;;;;;;40.58;27.50;;;;;;;;;;5091518;28;20016;-43
2022/10/06 02:33:36;;;;;;;55.97;50.47;;;;;;;;;;5091122;28;20032;-41
2022/10/06 02:36:02;;;;;;;31.48;11.95;;;;;;;;;;5090980;28;20458;-44
2022/10/06 02:38:27;;;;;;;38.88;12.63;;;;;;;;;;5091082;28;20027;-41
2022/10/06 02:40:53;;;;;;;32.50;12.52;;;;;;;;;;5091205;28;20032;-43
2022/10/06 02:43:18;;;;;;;32.83;11.10;;;;;;;;;;5094114;28;20020;-39
2022/10/06 02:45:51;;;;;;;25.90;11.68;;;;;;;;;;5095166;28;20027;-41
2022/10/06 02:48:16;;;;;;;33.80;13.52;;;;;;;;;;5094887;28;20080;-40
2022/10/06 02:50:42;;;;;;;90.18;66.18;;;;;;;;;;5095308;28;20059;-44
2022/10/06 02:53:07;;;;;;;46.10;29.85;;;;;;;;;;5095029;28;20024;-40
2022/10/06 02:55:33;;;;;;;33.03;11.65;;;;;;;;;;5095105;28;20031;-42
2022/10/06 02:57:59;;;;;;;30.63;12.68;;;;;;;;;;5094946;28;20466;-37
2022/10/06 03:00:24;;;;;;;27.55;11.43;;;;;;;;;;5095270;28;20103;-41
2022/10/06 03:02:49;;;;;;;26.63;11.60;;;;;;;;;;5095399;28;20016;-37
2022/10/06 03:05:14;;;;;;;25.90;11.70;;;;;;;;;;5094832;28;20236;-41
2022/10/06 03:07:39;;;;;;;28.90;12.05;;;;;;;;;;5095069;28;20763;-40
2022/10/06 03:10:05;;;;;;;27.37;11.70;;;;;;;;;;5094918;28;20378;-40
2022/10/06 03:12:30;;;;;;;32.88;13.13;;;;;;;;;;5094597;28;20285;-42
2022/10/06 03:14:56;;;;;;;27.27;12.27;;;;;;;;;;5094976;28;20024;-39
2022/10/06 03:17:21;;;;;;;29.10;12.83;;;;;;;;;;5094702;28;20022;-40
2022/10/06 03:19:46;;;;;;;24.65;11.35;;;;;;;;;;5094715;28;20329;-41
2022/10/06 03:22:11;;;;;;;30.48;11.73;;;;;;;;;;5094700;28;20028;-39
2022/10/06 03:24:37;;;;;;;26.40;11.60;;;;;;;;;;5094417;28;20016;-43
2022/10/06 03:27:02;;;;;;;32.20;12.55;;;;;;;;;;5094343;28;20107;-38
2022/10/06 03:29:28;;;;;;;33.30;11.65;;;;;;;;;;5094655;28;20012;-37
2022/10/06 03:31:53;;;;;;;22.63;11.15;;;;;;;;;;5094185;28;20386;-42
2022/10/06 03:34:19;;;;;;;23.83;10.53;;;;;;;;;;5094799;28;20091;-42
2022/10/06 03:36:44;;;;;;;24.83;11.60;;;;;;;;;;5094389;28;20264;-41
2022/10/06 03:39:09;;;;;;;25.43;12.53;;;;;;;;;;5094540;28;20371;-43
2022/10/06 03:41:36;;;;;;;29.27;11.55;;;;;;;;;;5093864;28;20237;-42
2022/10/06 03:44:01;;;;;;;33.13;12.27;;;;;;;;;;5094291;28;20091;-44
2022/10/06 03:46:28;;;;;;;28.88;11.70;;;;;;;;;;5093957;28;20131;-43
2022/10/06 03:48:54;;;;;;;34.45;13.25;;;;;;;;;;5094289;28;20099;-41
2022/10/06 03:51:20;;;;;;;30.77;12.73;;;;;;;;;;5094248;28;20055;-41
2022/10/06 03:53:47;;;;;;;28.75;12.18;;;;;;;;;;5092969;28;20059;-40
2022/10/06 03:56:14;;;;;;;27.77;12.68;;;;;;;;;;5093513;28;20094;-37
2022/10/06 03:58:40;;;;;;;29.65;12.95;;;;;;;;;;5094033;28;20012;-41
2022/10/06 04:01:07;;;;;;;26.77;11.85;;;;;;;;;;5093521;28;20087;-38
2022/10/06 04:03:32;;;;;;;30.42;12.93;;;;;;;;;;5093956;28;20016;-40
2022/10/06 04:05:59;;;;;;;30.80;12.73;;;;;;;;;;5093731;28;20028;-41
2022/10/06 04:08:24;;;;;;;33.33;12.48;;;;;;;;;;5093394;28;20024;-41
2022/10/06 04:10:50;;;;;;;32.80;13.10;;;;;;;;;;5094107;28;20035;-40
2022/10/06 04:13:16;;;;;;;24.92;11.75;;;;;;;;;;5093528;28;20040;-40
2022/10/06 04:15:42;;;;;;;25.25;12.45;;;;;;;;;;5093876;28;20378;-37
2022/10/06 04:18:07;;;;;;;31.58;12.55;;;;;;;;;;5093281;28;20024;-42
2022/10/06 04:20:32;;;;;;;29.88;12.63;;;;;;;;;;5093356;28;20016;-42
2022/10/06 04:22:57;;;;;;;34.83;13.95;;;;;;;;;;5093139;28;20063;-39
2022/10/06 04:25:23;;;;;;;36.63;14.47;;;;;;;;;;5093508;28;20024;-42
2022/10/06 04:27:48;;;;;;;26.30;12.90;;;;;;;;;;5093310;28;20249;-41
2022/10/06 04:30:13;;;;;;;30.17;12.68;;;;;;;;;;5093416;28;20459;-41
2022/10/06 04:32:39;;;;;;;26.40;12.45;;;;;;;;;;5093609;28;20065;-38
2022/10/06 04:35:04;;;;;;;26.58;12.90;;;;;;;;;;5093254;28;20459;-42
2022/10/06 04:37:29;;;;;;;31.15;13.73;;;;;;;;;;5093091;28;20489;-39
2022/10/06 04:39:54;;;;;;;36.20;13.80;;;;;;;;;;5093382;28;20542;-41
2022/10/06 04:42:20;;;;;;;28.38;12.93;;;;;;;;;;5092965;28;20364;-42
2022/10/06 04:44:45;;;;;;;27.33;12.95;;;;;;;;;;5093141;28;20031;-36
2022/10/06 04:47:10;;;;;;;27.48;12.48;;;;;;;;;;5092992;28;20161;-38
2022/10/06 04:49:35;;;;;;;29.77;13.85;;;;;;;;;;5093020;28;20038;-39
2022/10/06 04:52:01;;;;;;;29.80;12.73;;;;;;;;;;5092656;28;20095;-38
2022/10/06 04:54:26;;;;;;;32.55;14.65;;;;;;;;;;5092727;28;20318;-41
2022/10/06 04:56:51;;;;;;;27.45;12.95;;;;;;;;;;5092585;28;20012;-41
2022/10/06 04:59:16;;;;;;;32.75;13.95;;;;;;;;;;5092848;28;20020;-41
2022/10/06 05:01:42;;;;;;;27.40;12.17;;;;;;;;;;5092743;28;20355;-42
2022/10/06 05:04:07;;;;;;;29.25;13.63;;;;;;;;;;5092359;28;20644;-42
2022/10/06 05:06:36;;;;;;;31.63;13.68;;;;;;;;;;5091941;28;20438;-42
2022/10/06 05:09:03;;;;;;;25.95;11.98;;;;;;;;;;5092727;28;20024;-40
2022/10/06 05:11:29;;;;;;;33.78;13.45;;;;;;;;;;5092239;28;20435;-41
2022/10/06 05:13:55;;;;;;;32.00;13.20;;;;;;;;;;5092475;28;20032;-44
2022/10/06 05:16:21;;;;;;;32.15;13.23;;;;;;;;;;5092592;28;20027;-42
2022/10/06 05:18:46;;;;;;;23.17;11.52;;;;;;;;;;5092507;28;20050;-42
2022/10/06 05:21:13;;;;;;;29.17;13.30;;;;;;;;;;5091915;28;20028;-39
2022/10/06 05:23:39;;;;;;;29.33;13.05;;;;;;;;;;5092355;28;20024;-40
2022/10/06 05:26:05;;;;;;;30.55;13.40;;;;;;;;;;5092271;28;20024;-43
2022/10/06 05:28:30;;;;;;;32.22;13.32;;;;;;;;;;5092157;28;20038;-42
2022/10/06 05:30:56;;;;;;;35.15;12.75;;;;;;;;;;5092029;28;20172;-43
2022/10/06 05:33:22;;;;;;;32.80;14.25;;;;;;;;;;5091723;28;20024;-40
2022/10/06 05:35:51;;;;;;;32.25;14.48;;;;;;;;;;5076947;28;20035;-42
2022/10/06 05:38:16;;;;;;;33.05;15.30;;;;;;;;;;5081482;28;20459;-44
2022/10/06 05:40:42;;;;;;;32.83;16.08;;;;;;;;;;5071440;28;20116;-43
2022/10/06 05:43:07;;;;;;;36.50;16.42;;;;;;;;;;5076841;28;20028;-44
2022/10/06 05:45:32;;;;;;;30.23;14.23;;;;;;;;;;5071935;28;20025;-45
2022/10/06 05:47:58;;;;;;;34.25;16.30;;;;;;;;;;5082984;28;20115;-40
2022/10/06 05:50:24;;;;;;;50.63;18.83;;;;;;;;;;5083505;28;20048;-41
2022/10/06 05:52:49;;;;;;;33.05;16.02;;;;;;;;;;5073999;28;20490;-43
2022/10/06 05:55:15;;;;;;;31.70;15.55;;;;;;;;;;5080511;28;20024;-42
2022/10/06 05:57:40;;;;;;;37.42;15.20;;;;;;;;;;5082950;28;20016;-44
2022/10/06 06:00:06;;;;;;;34.10;13.52;;;;;;;;;;5085140;28;20054;-45
2022/10/06 06:02:31;;;;;;;41.03;14.27;;;;;;;;;;5084154;28;20016;-44
2022/10/06 06:04:56;;;;;;;37.77;15.33;;;;;;;;;;5078270;28;20020;-43
2022/10/06 06:07:22;;;;;;;38.75;16.35;;;;;;;;;;5081489;28;21075;-43
2022/10/06 06:09:47;;;;;;;43.67;17.48;;;;;;;;;;5078305;28;20066;-44
2022/10/06 06:12:15;;;;;;;38.03;15.88;;;;;;;;;;5078413;28;20032;-42
2022/10/06 06:17:24;;;;;;;42.60;16.67;;;;;;;;;;5076035;28;20494;-43
2022/10/06 06:19:49;;;;;;;35.58;15.20;;;;;;;;;;5077328;28;20016;-43
2022/10/06 06:22:15;;;;;;;33.00;13.95;;;;;;;;;;5079957;28;20139;-45
2022/10/06 06:24:40;;;;;;;27.08;14.20;;;;;;;;;;5088132;28;20032;-45
2022/10/06 06:27:05;;;;;;;29.20;14.88;;;;;;;;;;5088584;28;20047;-45
2022/10/06 06:29:31;;;;;;;37.97;14.65;;;;;;;;;;5079434;28;20035;-42
2022/10/06 06:31:56;;;;;;;32.08;12.63;;;;;;;;;;5079425;28;20032;-44
2022/10/06 06:34:21;;;;;;;28.67;13.95;;;;;;;;;;5073466;28;20060;-45
2022/10/06 06:36:52;;;;;;;24.80;12.40;;;;;;;;;;5081209;28;20069;-42
2022/10/06 06:39:18;;;;;;;26.55;13.75;;;;;;;;;;5074015;28;20028;-47
2022/10/06 06:41:45;;;;;;;25.52;12.50;;;;;;;;;;5072061;28;20071;-40
2022/10/06 06:44:10;;;;;;;37.92;15.65;;;;;;;;;;5080168;28;20387;-44
2022/10/06 06:46:37;;;;;;;23.05;13.63;;;;;;;;;;5073541;28;20024;-43
2022/10/06 06:49:03;;;;;;;31.50;12.93;;;;;;;;;;5085459;28;20131;-41
2022/10/06 06:51:29;;;;;;;22.23;11.55;;;;;;;;;;5086237;28;20031;-43
2022/10/06 06:53:58;;;;;;;27.92;13.15;;;;;;;;;;5083071;28;20036;-45
2022/10/06 06:56:23;;;;;;;21.75;11.90;;;;;;;;;;5079952;28;20034;-41
2022/10/06 06:58:49;;;;;;;27.95;14.30;;;;;;;;;;5073299;28;20023;-44
2022/10/06 07:01:15;;;;;;;24.48;12.82;;;;;;;;;;5077866;28;20054;-42
2022/10/06 07:03:41;;;;;;;30.52;14.70;;;;;;;;;;5078326;28;20028;-44
2022/10/06 07:06:08;;;;;;;31.67;14.55;;;;;;;;;;5072722;28;20086;-44
2022/10/06 07:08:37;;;;;;;27.65;13.20;;;;;;;;;;5075321;28;20119;-45
2022/10/06 07:11:12;;;;;;;31.95;13.13;;;;;;;;;;5082935;28;20398;-42
2022/10/06 07:13:37;;;;;;;32.53;13.80;;;;;;;;;;5082950;28;20062;-43
2022/10/06 07:27:00;;;;;;;23.17;13.35;;;;;;;;;;5071104;28;20391;-45
2022/10/06 07:29:26;;;;;;;26.65;12.73;;;;;;;;;;5082673;28;20026;-45
2022/10/06 07:31:52;;;;;;;21.75;11.10;;;;;;;;;;5062509;28;20106;-45
2022/10/06 07:34:17;;;;;;;18.48;10.05;;;;;;;;;;5081874;28;20463;-46
2022/10/06 07:36:43;;;;;;;17.90;9.75;;;;;;;;;;5077768;28;20036;-44
2022/10/06 07:39:09;;;;;;;19.23;10.05;;;;;;;;;;5080331;28;20032;-45
2022/10/06 07:41:34;;;;;;;22.23;10.10;;;;;;;;;;5073657;28;21016;-45
2022/10/06 07:44:03;;;;;;;18.45;9.55;;;;;;;;;;5083422;28;20028;-46
2022/10/06 07:46:29;;;;;;;20.48;10.77;;;;;;;;;;5087692;28;20479;-45
2022/10/06 07:48:54;;;;;;;21.20;12.32;;;;;;;;;;5087153;28;20040;-45
2022/10/06 07:51:20;;;;;;;16.38;9.55;;;;;;;;;;5089524;28;20102;-44
2022/10/06 07:53:49;;;;;;;18.20;9.23;;;;;;;;;;5075451;28;20048;-44
2022/10/06 07:56:15;;;;;;;20.88;10.77;;;;;;;;;;5086362;28;20024;-43
2022/10/06 07:58:40;;;;;;;19.05;11.13;;;;;;;;;;5088301;28;20035;-43
2022/10/06 08:01:07;;;;;;;24.00;12.48;;;;;;;;;;5075389;28;20395;-40
2022/10/06 08:03:32;;;;;;;51.28;11.75;;;;;;;;;;5079117;28;20035;-45
2022/10/06 08:05:58;;;;;;;24.70;12.70;;;;;;;;;;5065151;28;20013;-44
2022/10/06 08:08:24;;;;;;;24.65;12.30;;;;;;;;;;5058496;28;20169;-43
2022/10/06 08:10:53;;;;;;;17.73;11.70;;;;;;;;;;5077880;28;20101;-45
2022/10/06 08:13:18;;;;;;;;;;;;;;;;;;5084647;28;20140;-44
2022/10/06 08:15:43;;;;;;;19.40;11.43;;;;;;;;;;5092614;28;20359;-45
2022/10/06 08:18:08;;;;;;;16.13;10.82;;;;;;;;;;5079025;28;20029;-44
2022/10/06 08:20:34;;;;;;;21.35;10.27;;;;;;;;;;5071381;28;20026;-46
2022/10/06 08:22:59;;;;;;;22.10;10.68;;;;;;;;;;5071416;28;20031;-43
2022/10/06 08:25:24;;;;;;;13.77;10.23;;;;;;;;;;5085860;28;20021;-43
2022/10/06 08:27:50;;;;;;;16.42;9.60;;;;;;;;;;5073688;28;20099;-46
2022/10/06 08:30:15;;;;;;;18.88;9.75;;;;;;;;;;5085608;28;20028;-45
2022/10/06 08:32:42;;;;;;;19.07;11.47;;;;;;;;;;5077959;28;20028;-44
2022/10/06 08:35:10;;;;;;;19.25;10.13;;;;;;;;;;5071942;28;20241;-48
2022/10/06 08:37:35;;;;;;;18.33;10.25;;;;;;;;;;5077422;28;20074;-46
2022/10/06 08:40:01;;;;;;;17.77;10.20;;;;;;;;;;5081987;28;20020;-45
2022/10/06 08:42:43;;;;;;;35.15;10.73;;;;;;;;;;5056996;28;20016;-45
2022/10/06 08:45:27;;;;;;;18.30;9.32;;;;;;;;;;5090432;28;20027;-44
2022/10/06 08:48:08;;;;;;;16.02;9.65;;;;;;;;;;5081219;28;20048;-44
2022/10/06 08:50:37;;;;;;;14.93;7.32;;;;;;;;;;5075676;28;20043;-45
2022/10/06 08:53:16;;;;;;;15.25;9.38;;;;;;;;;;5076358;28;20043;-44
2022/10/06 08:55:41;;;;;;;15.07;8.70;;;;;;;;;;5055813;28;20032;-45
2022/10/06 08:58:13;;;;;;;14.40;7.93;;;;;;;;;;5075037;28;20391;-45
2022/10/06 09:00:38;;;;;;;18.65;8.27;;;;;;;;;;5076367;28;20027;-44
2022/10/06 09:03:04;;;;;;;18.27;7.72;;;;;;;;;;5078318;28;20024;-45
2022/10/06 09:05:30;;;;;;;17.63;10.43;;;;;;;;;;5073619;28;20645;-46
2022/10/06 09:08:15;;;;;;;20.30;9.77;;;;;;;;;;5071532;28;20108;-44
2022/10/06 09:10:52;;;;;;;70.50;14.32;;;;;;;;;;5078174;28;20031;-44
2022/10/06 09:13:27;;;;;;;26.08;10.20;;;;;;;;;;5074696;28;20123;-45
2022/10/06 09:15:54;;;;;;;141.10;46.25;;;;;;;;;;5078760;28;20032;-45
2022/10/06 09:18:27;;;;;;;63.50;29.10;;;;;;;;;;5061345;28;20459;-47
2022/10/06 09:21:00;;;;;;;16.23;10.02;;;;;;;;;;5075972;28;20024;-45
2022/10/06 09:23:46;;;;;;;13.93;9.15;;;;;;;;;;5077192;28;20098;-44
2022/10/06 09:26:13;;;;;;;14.38;8.57;;;;;;;;;;5081159;28;20531;-45
2022/10/06 09:28:38;;;;;;;29.15;9.23;;;;;;;;;;5077607;28;20475;-45
2022/10/06 09:31:16;;;;;;;37.45;11.63;;;;;;;;;;5078745;28;20062;-45
2022/10/06 09:33:42;;;;;;;15.57;8.55;;;;;;;;;;5072850;28;20123;-45
2022/10/06 09:36:08;;;;;;;16.77;9.02;;;;;;;;;;5070887;28;20095;-45
2022/10/06 09:38:48;;;;;;;57.70;12.35;;;;;;;;;;5057175;28;20016;-45
2022/10/06 09:41:14;;;;;;;27.80;9.10;;;;;;;;;;5082197;28;20032;-45
2022/10/06 09:43:40;;;;;;;11.85;8.15;;;;;;;;;;5091531;28;20036;-46
2022/10/06 09:46:24;;;;;;;14.85;8.63;;;;;;;;;;5072821;28;20067;-45
2022/10/06 09:49:04;;;;;;;33.95;10.95;;;;;;;;;;5074729;28;20045;-45
2022/10/06 09:51:32;;;;;;;15.95;8.65;;;;;;;;;;5079461;28;20416;-45
2022/10/06 09:54:14;;;;;;;13.05;8.23;;;;;;;;;;5070495;28;20063;-44
2022/10/06 09:56:43;;;;;;;13.00;9.13;;;;;;;;;;5070449;28;20048;-45
2022/10/06 09:59:24;;;;;;;13.27;8.73;;;;;;;;;;5070508;28;20032;-45
2022/10/06 10:01:54;;;;;;;15.25;7.70;;;;;;;;;;5079959;28;20104;-44
2022/10/06 10:04:25;;;;;;;18.67;7.97;;;;;;;;;;5072017;28;20052;-45
2022/10/06 10:06:51;;;;;;;10.48;7.35;;;;;;;;;;5084946;28;20020;-45
2022/10/06 10:09:20;;;;;;;13.60;7.22;;;;;;;;;;5091325;28;20032;-45
2022/10/06 10:14:35;;;;;;;14.50;7.05;;;;;;;;;;5081235;28;20062;-44
2022/10/06 10:17:11;;;;;;;16.33;7.25;;;;;;;;;;5075021;28;20035;-44
2022/10/06 10:19:41;;;;;;;15.48;7.32;;;;;;;;;;5089791;28;20022;-45
2022/10/06 10:22:17;;;;;;;10.00;6.15;;;;;;;;;;5070446;28;20020;-44
2022/10/06 10:24:50;;;;;;;8.68;5.45;;;;;;;;;;5079654;28;20016;-47
2022/10/06 10:27:20;;;;;;;9.50;5.97;;;;;;;;;;5073338;28;20036;-44
2022/10/06 10:29:45;;;;;;;9.30;5.95;;;;;;;;;;5072627;28;20024;-46
2022/10/06 10:32:29;;;;;;;15.02;6.28;;;;;;;;;;5070542;28;20490;-44
2022/10/06 10:34:55;;;;;;;11.77;6.10;;;;;;;;;;5072251;28;20032;-45
2022/10/06 10:37:41;;;;;;;7.70;5.32;;;;;;;;;;5080679;28;20035;-44
2022/10/06 10:40:13;;;;;;;10.82;5.47;;;;;;;;;;5065064;28;20036;-44
2022/10/06 10:42:55;;;;;;;9.05;5.40;;;;;;;;;;5070315;28;20051;-45
2022/10/06 10:45:27;;;;;;;8.55;5.22;;;;;;;;;;5077704;28;20025;-44
2022/10/06 10:47:54;;;;;;;13.25;7.30;;;;;;;;;;5087535;28;20048;-44
2022/10/06 10:50:19;;;;;;;11.65;6.72;;;;;;;;;;5075393;28;20036;-44
2022/10/06 10:52:47;;;;;;;12.38;5.80;;;;;;;;;;5082931;28;20044;-44
2022/10/06 10:55:38;;;;;;;10.52;4.50;;;;;;;;;;5082010;28;20030;-43
2022/10/06 10:58:10;;;;;;;9.15;5.18;;;;;;;;;;5079978;28;20031;-44
2022/10/06 11:00:40;;;;;;;10.98;5.25;;;;;;;;;;5081958;28;20028;-45
2022/10/06 11:03:08;;;;;;;11.98;5.43;;;;;;;;;;5076906;28;20028;-44
2022/10/06 11:05:45;;;;;;;6.97;4.40;;;;;;;;;;5084286;28;20035;-44
2022/10/06 11:08:23;;;;;;;7.38;4.07;;;;;;;;;;5079594;28;20265;-44
2022/10/06 11:10:50;;;;;;;9.23;5.25;;;;;;;;;;5074129;28;20024;-46
2022/10/06 11:13:15;;;;;;;9.63;5.28;;;;;;;;;;5055223;28;20124;-44
2022/10/06 11:15:53;;;;;;;9.50;5.35;;;;;;;;;;5073239;28;20117;-45
2022/10/06 11:18:23;;;;;;;7.43;4.25;;;;;;;;;;5073509;28;20031;-45
2022/10/06 11:21:00;;;;;;;7.13;4.60;;;;;;;;;;5082322;28;20035;-45
2022/10/06 11:23:28;;;;;;;15.30;5.10;;;;;;;;;;5083548;28;20025;-44
2022/10/06 11:26:03;;;;;;;6.95;4.25;;;;;;;;;;5086639;28;20284;-46
2022/10/06 11:28:38;;;;;;;17.98;4.82;;;;;;;;;;5072970;28;20024;-44
2022/10/06 11:31:15;;;;;;;6.15;3.92;;;;;;;;;;5091421;28;20058;-46
2022/10/06 11:33:47;;;;;;;7.53;4.10;;;;;;;;;;5092802;28;20032;-45
2022/10/06 11:36:21;;;;;;;9.30;4.55;;;;;;;;;;5092121;28;20024;-45
2022/10/06 11:38:52;;;;;;;6.25;4.13;;;;;;;;;;5091254;28;20031;-46
2022/10/06 11:41:22;;;;;;;9.30;4.45;;;;;;;;;;5072886;28;20016;-45
2022/10/06 11:43:47;;;;;;;10.68;3.63;;;;;;;;;;5073363;28;20031;-44
2022/10/06 11:46:12;;;;;;;5.85;3.92;;;;;;;;;;5073209;28;20021;-46
2022/10/06 11:48:38;;;;;;;7.13;4.03;;;;;;;;;;5073103;28;20052;-44
2022/10/06 11:51:19;;;;;;;7.28;4.10;;;;;;;;;;5093017;28;20664;-43
2022/10/06 11:53:45;;;;;;;7.22;4.50;;;;;;;;;;5093652;28;20353;-41
2022/10/06 11:56:16;;;;;;;7.97;3.88;;;;;;;;;;5093250;28;20031;-41
2022/10/06 11:58:51;;;;;;;8.75;4.88;;;;;;;;;;5091801;28;20115;-44
2022/10/06 12:01:38;;;;;;;8.50;4.22;;;;;;;;;;5072954;28;20063;-41
2022/10/06 12:04:06;;;;;;;6.70;4.50;;;;;;;;;;5073470;28;20024;-43
2022/10/06 12:06:40;;;;;;;14.60;3.90;;;;;;;;;;5072424;28;20032;-44
2022/10/06 12:09:29;;;;;;;8.35;3.42;;;;;;;;;;5072867;28;20028;-45
2022/10/06 12:12:02;;;;;;;9.00;3.85;;;;;;;;;;5083236;28;20035;-45
2022/10/06 12:14:46;;;;;;;7.15;4.13;;;;;;;;;;5092472;28;20040;-44
2022/10/06 12:17:30;;;;;;;8.50;3.85;;;;;;;;;;5082907;28;20027;-46
2022/10/06 12:20:33;;;;;;;6.10;3.63;;;;;;;;;;5080277;28;20028;-46
2022/10/06 12:23:08;;;;;;;6.45;3.70;;;;;;;;;;5019383;28;20097;-44
2022/10/06 12:25:47;;;;;;;11.43;4.30;;;;;;;;;;5009940;28;20037;-46
2022/10/06 12:28:34;;;;;;;6.63;3.63;;;;;;;;;;5047117;28;20040;-47
2022/10/06 12:31:05;;;;;;;10.00;3.78;;;;;;;;;;5072814;28;20045;-45
2022/10/06 12:33:38;;;;;;;6.20;3.55;;;;;;;;;;5075403;28;20039;-46
2022/10/06 12:36:04;;;;;;;9.18;3.72;;;;;;;;;;5075198;28;20051;-45
2022/10/06 12:38:29;;;;;;;9.48;3.83;;;;;;;;;;5071824;28;20039;-43
2022/10/06 12:40:55;;;;;;;14.77;3.83;;;;;;;;;;5053853;28;20016;-45
2022/10/06 12:43:21;;;;;;;8.60;3.78;;;;;;;;;;5072110;28;20597;-45
2022/10/06 12:45:48;;;;;;;6.68;3.85;;;;;;;;;;5072233;28;20016;-44
2022/10/06 12:48:23;;;;;;;20.08;3.90;;;;;;;;;;5071613;28;20079;-45
2022/10/06 12:50:53;;;;;;;10.05;3.67;;;;;;;;;;5072761;28;20051;-43
2022/10/06 12:53:20;;;;;;;6.55;3.42;;;;;;;;;;5076648;28;20032;-45
2022/10/06 12:55:46;;;;;;;11.07;3.83;;;;;;;;;;5088002;28;20118;-44
2022/10/06 12:58:16;;;;;;;4.75;3.50;;;;;;;;;;5072587;28;20095;-45
2022/10/06 13:00:42;;;;;;;6.32;3.13;;;;;;;;;;5078647;28;20047;-44
2022/10/06 13:03:15;;;;;;;6.28;3.13;;;;;;;;;;5070996;28;20083;-46
2022/10/06 13:05:40;;;;;;;8.77;3.47;;;;;;;;;;5075006;28;20108;-45
2022/10/06 13:08:19;;;;;;;10.73;3.50;;;;;;;;;;5073944;28;20103;-43
2022/10/06 13:10:44;;;;;;;8.10;4.03;;;;;;;;;;5078381;28;20077;-43
2022/10/06 13:13:23;;;;;;;6.97;3.55;;;;;;;;;;5084500;28;20036;-43
2022/10/06 13:15:54;;;;;;;3.28;2.95;;;;;;;;;;5070497;28;20039;-47
2022/10/06 13:18:21;;;;;;;5.57;2.78;;;;;;;;;;5074282;28;20027;-45
2022/10/06 13:20:51;;;;;;;4.65;3.17;;;;;;;;;;5073798;28;20028;-43
2022/10/06 13:23:16;;;;;;;11.35;4.57;;;;;;;;;;5081917;28;20612;-43
2022/10/06 13:25:43;;;;;;;6.73;4.00;;;;;;;;;;5089083;28;20083;-45
2022/10/06 13:28:38;;;;;;;7.72;3.38;;;;;;;;;;5086480;28;20265;-45
2022/10/06 13:31:20;;;;;;;6.55;2.67;;;;;;;;;;5059337;28;20032;-46
2022/10/06 13:33:51;;;;;;;6.68;3.08;;;;;;;;;;5075663;28;20044;-45
2022/10/06 13:36:16;;;;;;;9.23;3.40;;;;;;;;;;5071903;28;20111;-44
2022/10/06 13:38:42;;;;;;;8.80;3.72;;;;;;;;;;5072035;28;20124;-44
2022/10/06 13:41:10;;;;;;;6.68;3.25;;;;;;;;;;5072761;28;20032;-44
2022/10/06 13:43:40;;;;;;;5.83;3.27;;;;;;;;;;5073182;28;20070;-46
2022/10/06 13:46:09;;;;;;;5.07;2.80;;;;;;;;;;5087664;28;20116;-46
2022/10/06 13:48:36;;;;;;;7.47;3.15;;;;;;;;;;5071550;28;20048;-43
2022/10/06 13:51:02;;;;;;;5.93;3.33;;;;;;;;;;5077327;28;20103;-45
2022/10/06 13:53:29;;;;;;;10.65;3.35;;;;;;;;;;5089866;28;20123;-44
2022/10/06 13:55:55;;;;;;;8.60;3.72;;;;;;;;;;5071554;28;20032;-44
2022/10/06 13:58:23;;;;;;;4.32;2.60;;;;;;;;;;5077230;28;20020;-45
2022/10/06 14:00:55;;;;;;;7.43;3.28;;;;;;;;;;5078965;28;20451;-43
2022/10/06 14:03:22;;;;;;;8.98;3.00;;;;;;;;;;5073086;28;20028;-44
2022/10/06 14:05:48;;;;;;;6.22;2.15;;;;;;;;;;5075020;28;20020;-45
2022/10/06 14:08:25;;;;;;;4.40;2.25;;;;;;;;;;5070048;28;20206;-44
2022/10/06 14:10:53;;;;;;;4.65;2.40;;;;;;;;;;5071087;28;20467;-44
2022/10/06 14:13:18;;;;;;;5.43;2.92;;;;;;;;;;5072496;28;20475;-46
2022/10/06 14:15:47;;;;;;;4.63;2.60;;;;;;;;;;5078149;28;20035;-44
2022/10/06 14:18:20;;;;;;;3.60;2.47;;;;;;;;;;5087866;28;20455;-44
2022/10/06 14:20:56;;;;;;;6.30;2.75;;;;;;;;;;5083450;28;20525;-45
2022/10/06 14:23:39;;;;;;;3.00;2.28;;;;;;;;;;5089943;28;20047;-45
2022/10/06 14:26:04;;;;;;;5.60;2.67;;;;;;;;;;5076274;28;20586;-45
2022/10/06 14:28:30;;;;;;;4.07;2.28;;;;;;;;;;5076723;28;20096;-46
2022/10/06 14:30:56;;;;;;;3.47;1.88;;;;;;;;;;5087311;28;20028;-44
2022/10/06 14:33:22;;;;;;;3.20;2.22;;;;;;;;;;5082252;28;20028;-45
2022/10/06 14:35:48;;;;;;;4.25;2.70;;;;;;;;;;5088740;28;20461;-45
2022/10/06 14:38:13;;;;;;;5.78;2.20;;;;;;;;;;5090208;28;20028;-45
2022/10/06 14:40:39;;;;;;;3.53;2.30;;;;;;;;;;5095448;28;20370;-43
2022/10/06 14:43:04;;;;;;;2.90;2.35;;;;;;;;;;5095402;28;20028;-44
2022/10/06 14:45:34;;;;;;;4.27;2.33;;;;;;;;;;5095653;28;20363;-45
2022/10/06 14:48:00;;;;;;;3.10;2.22;;;;;;;;;;5095393;28;20082;-44
2022/10/06 14:50:26;;;;;;;2.90;2.60;;;;;;;;;;5095197;28;20051;-44